sensor_id;sensor_type;location;lat;lon;timestamp;P1;durP1;ratioP1;P2;durP2;ratioP2
76346;SDS011;65171;48.378;10.010;2022-12-17T00:01:13;16.13;;;10.97;;
76346;SDS011;65171;48.378;10.010;2022-12-17T00:03:38;15.97;;;11.27;;
76346;SDS011;65171;48.378;10.010;2022-12-17T00:06:03;21.67;;;11.47;;
76346;SDS011;65171;48.378;10.010;2022-12-17T00:08:29;14.40;;;10.93;;
76346;SDS011;65171;48.378;10.010;2022-12-17T00:10:56;15.33;;;11.33;;
76346;SDS011;65171;48.378;10.010;2022-12-17T00:13:22;15.47;;;11.30;;
76346;SDS011;65171;48.378;10.010;2022-12-17T00:15:50;14.87;;;10.73;;
76346;SDS011;65171;48.378;10.010;2022-12-17T00:18:16;15.23;;;10.80;;
76346;SDS011;65171;48.378;10.010;2022-12-17T00:20:41;17.27;;;10.77;;
76346;SDS011;65171;48.378;10.010;2022-12-17T00:23:07;17.60;;;11.77;;
76346;SDS011;65171;48.378;10.010;2022-12-17T00:25:32;16.53;;;11.23;;
76346;SDS011;65171;48.378;10.010;2022-12-17T00:27:57;16.67;;;11.83;;
76346;SDS011;65171;48.378;10.010;2022-12-17T00:30:23;18.73;;;12.10;;
76346;SDS011;65171;48.378;10.010;2022-12-17T00:32:49;16.63;;;12.17;;
76346;SDS011;65171;48.378;10.010;2022-12-17T00:35:14;15.80;;;11.23;;
76346;SDS011;65171;48.378;10.010;2022-12-17T00:37:40;17.57;;;11.93;;
76346;SDS011;65171;48.378;10.010;2022-12-17T00:40:05;17.03;;;12.57;;
76346;SDS011;65171;48.378;10.010;2022-12-17T00:42:31;23.77;;;13.07;;
76346;SDS011;65171;48.378;10.010;2022-12-17T00:44:56;21.67;;;12.80;;
76346;SDS011;65171;48.378;10.010;2022-12-17T00:47:21;19.50;;;12.80;;
76346;SDS011;65171;48.378;10.010;2022-12-17T00:49:47;16.70;;;12.70;;
76346;SDS011;65171;48.378;10.010;2022-12-17T00:52:12;19.90;;;13.30;;
76346;SDS011;65171;48.378;10.010;2022-12-17T00:54:37;19.63;;;12.40;;
76346;SDS011;65171;48.378;10.010;2022-12-17T00:57:02;19.30;;;12.80;;
76346;SDS011;65171;48.378;10.010;2022-12-17T00:59:27;18.53;;;12.67;;
76346;SDS011;65171;48.378;10.010;2022-12-17T01:01:53;19.90;;;12.67;;
76346;SDS011;65171;48.378;10.010;2022-12-17T01:04:18;17.20;;;11.73;;
76346;SDS011;65171;48.378;10.010;2022-12-17T01:06:43;18.87;;;12.30;;
76346;SDS011;65171;48.378;10.010;2022-12-17T01:09:08;17.83;;;12.37;;
76346;SDS011;65171;48.378;10.010;2022-12-17T01:11:34;16.80;;;11.87;;
76346;SDS011;65171;48.378;10.010;2022-12-17T01:13:59;20.33;;;12.27;;
76346;SDS011;65171;48.378;10.010;2022-12-17T01:16:24;17.77;;;11.97;;
76346;SDS011;65171;48.378;10.010;2022-12-17T01:18:50;16.70;;;11.93;;
76346;SDS011;65171;48.378;10.010;2022-12-17T01:21:16;18.00;;;12.20;;
76346;SDS011;65171;48.378;10.010;2022-12-17T01:23:41;19.03;;;13.37;;
76346;SDS011;65171;48.378;10.010;2022-12-17T01:26:06;21.37;;;13.20;;
76346;SDS011;65171;48.378;10.010;2022-12-17T01:28:31;17.97;;;12.70;;
76346;SDS011;65171;48.378;10.010;2022-12-17T01:30:56;23.07;;;13.43;;
76346;SDS011;65171;48.378;10.010;2022-12-17T01:33:22;18.47;;;12.40;;
76346;SDS011;65171;48.378;10.010;2022-12-17T01:35:47;19.83;;;12.77;;
76346;SDS011;65171;48.378;10.010;2022-12-17T01:38:13;20.20;;;13.17;;
76346;SDS011;65171;48.378;10.010;2022-12-17T01:40:43;18.77;;;12.77;;
76346;SDS011;65171;48.378;10.010;2022-12-17T01:43:11;18.57;;;13.20;;
76346;SDS011;65171;48.378;10.010;2022-12-17T01:45:37;19.33;;;12.93;;
76346;SDS011;65171;48.378;10.010;2022-12-17T01:48:10;17.77;;;12.83;;
76346;SDS011;65171;48.378;10.010;2022-12-17T01:50:40;18.17;;;12.80;;
76346;SDS011;65171;48.378;10.010;2022-12-17T01:53:08;18.17;;;12.73;;
76346;SDS011;65171;48.378;10.010;2022-12-17T01:55:34;18.40;;;12.47;;
76346;SDS011;65171;48.378;10.010;2022-12-17T01:57:59;19.07;;;12.87;;
76346;SDS011;65171;48.378;10.010;2022-12-17T02:00:25;19.60;;;13.00;;
76346;SDS011;65171;48.378;10.010;2022-12-17T02:02:51;18.03;;;12.97;;
76346;SDS011;65171;48.378;10.010;2022-12-17T02:05:17;18.37;;;13.20;;
76346;SDS011;65171;48.378;10.010;2022-12-17T02:08:00;18.67;;;11.93;;
76346;SDS011;65171;48.378;10.010;2022-12-17T02:10:35;19.17;;;12.50;;
76346;SDS011;65171;48.378;10.010;2022-12-17T02:13:20;15.90;;;11.70;;
76346;SDS011;65171;48.378;10.010;2022-12-17T02:15:50;18.43;;;12.50;;
76346;SDS011;65171;48.378;10.010;2022-12-17T02:18:24;22.50;;;14.10;;
76346;SDS011;65171;48.378;10.010;2022-12-17T02:20:55;22.90;;;13.17;;
76346;SDS011;65171;48.378;10.010;2022-12-17T02:26:16;18.77;;;11.77;;
76346;SDS011;65171;48.378;10.010;2022-12-17T02:28:51;21.10;;;13.37;;
76346;SDS011;65171;48.378;10.010;2022-12-17T02:31:17;22.40;;;13.87;;
76346;SDS011;65171;48.378;10.010;2022-12-17T02:33:43;21.50;;;13.43;;
76346;SDS011;65171;48.378;10.010;2022-12-17T02:36:09;19.77;;;13.47;;
76346;SDS011;65171;48.378;10.010;2022-12-17T02:38:35;19.47;;;12.50;;
76346;SDS011;65171;48.378;10.010;2022-12-17T02:41:00;20.50;;;12.63;;
76346;SDS011;65171;48.378;10.010;2022-12-17T02:43:28;18.10;;;12.67;;
76346;SDS011;65171;48.378;10.010;2022-12-17T02:45:54;22.67;;;12.63;;
76346;SDS011;65171;48.378;10.010;2022-12-17T02:48:20;18.30;;;12.50;;
76346;SDS011;65171;48.378;10.010;2022-12-17T02:50:46;17.47;;;13.00;;
76346;SDS011;65171;48.378;10.010;2022-12-17T02:53:12;21.73;;;13.17;;
76346;SDS011;65171;48.378;10.010;2022-12-17T02:55:37;16.50;;;12.00;;
76346;SDS011;65171;48.378;10.010;2022-12-17T02:58:02;18.10;;;12.00;;
76346;SDS011;65171;48.378;10.010;2022-12-17T03:00:28;16.63;;;11.73;;
76346;SDS011;65171;48.378;10.010;2022-12-17T03:02:53;18.83;;;12.90;;
76346;SDS011;65171;48.378;10.010;2022-12-17T03:05:18;19.50;;;12.93;;
76346;SDS011;65171;48.378;10.010;2022-12-17T03:07:43;19.33;;;13.27;;
76346;SDS011;65171;48.378;10.010;2022-12-17T03:10:08;19.37;;;13.00;;
76346;SDS011;65171;48.378;10.010;2022-12-17T03:12:33;19.33;;;13.17;;
76346;SDS011;65171;48.378;10.010;2022-12-17T03:14:59;17.80;;;11.70;;
76346;SDS011;65171;48.378;10.010;2022-12-17T03:17:24;17.10;;;11.87;;
76346;SDS011;65171;48.378;10.010;2022-12-17T03:19:49;20.13;;;12.10;;
76346;SDS011;65171;48.378;10.010;2022-12-17T03:22:14;19.03;;;11.67;;
76346;SDS011;65171;48.378;10.010;2022-12-17T03:24:39;17.87;;;11.80;;
76346;SDS011;65171;48.378;10.010;2022-12-17T03:27:05;18.23;;;12.17;;
76346;SDS011;65171;48.378;10.010;2022-12-17T03:29:30;16.60;;;11.67;;
76346;SDS011;65171;48.378;10.010;2022-12-17T03:31:55;15.10;;;11.13;;
76346;SDS011;65171;48.378;10.010;2022-12-17T03:34:20;17.57;;;12.13;;
76346;SDS011;65171;48.378;10.010;2022-12-17T03:36:46;17.87;;;12.70;;
76346;SDS011;65171;48.378;10.010;2022-12-17T03:39:11;17.07;;;11.80;;
76346;SDS011;65171;48.378;10.010;2022-12-17T03:41:36;17.73;;;12.40;;
76346;SDS011;65171;48.378;10.010;2022-12-17T03:44:01;15.93;;;11.77;;
76346;SDS011;65171;48.378;10.010;2022-12-17T03:46:27;19.23;;;12.93;;
76346;SDS011;65171;48.378;10.010;2022-12-17T03:48:52;17.73;;;11.20;;
76346;SDS011;65171;48.378;10.010;2022-12-17T03:51:17;16.67;;;12.53;;
76346;SDS011;65171;48.378;10.010;2022-12-17T03:53:42;17.73;;;12.07;;
76346;SDS011;65171;48.378;10.010;2022-12-17T03:56:08;18.55;;;12.48;;
76346;SDS011;65171;48.378;10.010;2022-12-17T03:58:33;16.10;;;12.00;;
76346;SDS011;65171;48.378;10.010;2022-12-17T04:00:59;20.20;;;12.80;;
76346;SDS011;65171;48.378;10.010;2022-12-17T04:03:24;20.23;;;12.37;;
76346;SDS011;65171;48.378;10.010;2022-12-17T04:05:49;16.47;;;11.27;;
76346;SDS011;65171;48.378;10.010;2022-12-17T04:08:14;18.13;;;12.67;;
76346;SDS011;65171;48.378;10.010;2022-12-17T04:10:39;23.80;;;14.07;;
76346;SDS011;65171;48.378;10.010;2022-12-17T04:13:05;22.07;;;12.90;;
76346;SDS011;65171;48.378;10.010;2022-12-17T04:15:30;18.20;;;12.67;;
76346;SDS011;65171;48.378;10.010;2022-12-17T04:17:55;19.23;;;12.30;;
76346;SDS011;65171;48.378;10.010;2022-12-17T04:20:20;20.63;;;13.37;;
76346;SDS011;65171;48.378;10.010;2022-12-17T04:22:45;17.07;;;11.90;;
76346;SDS011;65171;48.378;10.010;2022-12-17T04:25:11;18.70;;;12.77;;
76346;SDS011;65171;48.378;10.010;2022-12-17T04:27:36;18.50;;;13.07;;
76346;SDS011;65171;48.378;10.010;2022-12-17T04:30:01;17.93;;;11.90;;
76346;SDS011;65171;48.378;10.010;2022-12-17T04:32:26;17.63;;;12.23;;
76346;SDS011;65171;48.378;10.010;2022-12-17T04:34:51;18.20;;;12.57;;
76346;SDS011;65171;48.378;10.010;2022-12-17T04:37:17;21.27;;;12.37;;
76346;SDS011;65171;48.378;10.010;2022-12-17T04:39:42;19.27;;;12.47;;
76346;SDS011;65171;48.378;10.010;2022-12-17T04:42:07;18.70;;;12.30;;
76346;SDS011;65171;48.378;10.010;2022-12-17T04:44:32;17.97;;;12.30;;
76346;SDS011;65171;48.378;10.010;2022-12-17T04:46:57;17.53;;;11.70;;
76346;SDS011;65171;48.378;10.010;2022-12-17T04:49:23;21.20;;;12.80;;
76346;SDS011;65171;48.378;10.010;2022-12-17T04:51:48;18.27;;;12.43;;
76346;SDS011;65171;48.378;10.010;2022-12-17T04:54:13;18.93;;;12.50;;
76346;SDS011;65171;48.378;10.010;2022-12-17T04:56:38;19.50;;;12.53;;
76346;SDS011;65171;48.378;10.010;2022-12-17T04:59:03;19.53;;;12.23;;
76346;SDS011;65171;48.378;10.010;2022-12-17T05:01:29;19.90;;;12.67;;
76346;SDS011;65171;48.378;10.010;2022-12-17T05:03:54;18.40;;;12.17;;
76346;SDS011;65171;48.378;10.010;2022-12-17T05:06:19;16.27;;;11.07;;
76346;SDS011;65171;48.378;10.010;2022-12-17T05:08:44;17.30;;;11.40;;
76346;SDS011;65171;48.378;10.010;2022-12-17T05:11:09;19.63;;;11.63;;
76346;SDS011;65171;48.378;10.010;2022-12-17T05:13:35;18.13;;;11.27;;
76346;SDS011;65171;48.378;10.010;2022-12-17T05:16:00;15.40;;;10.70;;
76346;SDS011;65171;48.378;10.010;2022-12-17T05:18:25;18.33;;;11.70;;
76346;SDS011;65171;48.378;10.010;2022-12-17T05:20:50;19.13;;;12.20;;
76346;SDS011;65171;48.378;10.010;2022-12-17T05:23:16;20.27;;;11.70;;
76346;SDS011;65171;48.378;10.010;2022-12-17T05:25:41;19.17;;;11.73;;
76346;SDS011;65171;48.378;10.010;2022-12-17T05:28:06;21.13;;;12.30;;
76346;SDS011;65171;48.378;10.010;2022-12-17T05:30:31;23.03;;;12.60;;
76346;SDS011;65171;48.378;10.010;2022-12-17T05:33:00;21.23;;;14.07;;
76346;SDS011;65171;48.378;10.010;2022-12-17T05:35:26;20.65;;;13.73;;
76346;SDS011;65171;48.378;10.010;2022-12-17T05:37:51;22.07;;;13.33;;
76346;SDS011;65171;48.378;10.010;2022-12-17T05:40:17;23.60;;;13.67;;
76346;SDS011;65171;48.378;10.010;2022-12-17T05:42:42;21.27;;;13.70;;
76346;SDS011;65171;48.378;10.010;2022-12-17T05:45:18;23.10;;;14.07;;
76346;SDS011;65171;48.378;10.010;2022-12-17T05:47:43;20.80;;;13.33;;
76346;SDS011;65171;48.378;10.010;2022-12-17T05:50:08;20.53;;;13.90;;
76346;SDS011;65171;48.378;10.010;2022-12-17T05:52:33;20.93;;;13.30;;
76346;SDS011;65171;48.378;10.010;2022-12-17T05:54:59;22.43;;;13.40;;
76346;SDS011;65171;48.378;10.010;2022-12-17T05:57:24;22.10;;;13.60;;
76346;SDS011;65171;48.378;10.010;2022-12-17T05:59:49;20.97;;;13.13;;
76346;SDS011;65171;48.378;10.010;2022-12-17T06:02:14;19.37;;;13.03;;
76346;SDS011;65171;48.378;10.010;2022-12-17T06:04:39;22.37;;;13.80;;
76346;SDS011;65171;48.378;10.010;2022-12-17T06:07:05;27.30;;;14.97;;
76346;SDS011;65171;48.378;10.010;2022-12-17T06:09:30;21.63;;;13.83;;
76346;SDS011;65171;48.378;10.010;2022-12-17T06:11:55;23.33;;;14.00;;
76346;SDS011;65171;48.378;10.010;2022-12-17T06:14:20;22.03;;;13.23;;
76346;SDS011;65171;48.378;10.010;2022-12-17T06:16:45;21.50;;;14.43;;
76346;SDS011;65171;48.378;10.010;2022-12-17T06:19:11;19.27;;;13.40;;
76346;SDS011;65171;48.378;10.010;2022-12-17T06:21:36;20.43;;;13.47;;
76346;SDS011;65171;48.378;10.010;2022-12-17T06:24:01;22.87;;;14.33;;
76346;SDS011;65171;48.378;10.010;2022-12-17T06:26:26;25.47;;;15.30;;
76346;SDS011;65171;48.378;10.010;2022-12-17T06:28:51;24.90;;;15.27;;
76346;SDS011;65171;48.378;10.010;2022-12-17T06:31:16;24.07;;;14.70;;
76346;SDS011;65171;48.378;10.010;2022-12-17T06:33:42;25.97;;;16.47;;
76346;SDS011;65171;48.378;10.010;2022-12-17T06:36:07;26.00;;;16.17;;
76346;SDS011;65171;48.378;10.010;2022-12-17T06:38:32;27.20;;;16.23;;
76346;SDS011;65171;48.378;10.010;2022-12-17T06:41:00;26.27;;;15.53;;
76346;SDS011;65171;48.378;10.010;2022-12-17T06:43:26;28.77;;;16.02;;
76346;SDS011;65171;48.378;10.010;2022-12-17T06:45:51;25.87;;;16.17;;
76346;SDS011;65171;48.378;10.010;2022-12-17T06:48:16;28.43;;;16.97;;
76346;SDS011;65171;48.378;10.010;2022-12-17T06:50:42;27.90;;;15.77;;
76346;SDS011;65171;48.378;10.010;2022-12-17T06:53:07;26.63;;;14.93;;
76346;SDS011;65171;48.378;10.010;2022-12-17T06:55:33;35.75;;;15.82;;
76346;SDS011;65171;48.378;10.010;2022-12-17T06:57:58;28.13;;;16.10;;
76346;SDS011;65171;48.378;10.010;2022-12-17T07:00:24;27.83;;;15.93;;
76346;SDS011;65171;48.378;10.010;2022-12-17T07:02:53;27.23;;;16.03;;
76346;SDS011;65171;48.378;10.010;2022-12-17T07:05:20;26.10;;;16.08;;
76346;SDS011;65171;48.378;10.010;2022-12-17T07:07:45;28.40;;;15.60;;
76346;SDS011;65171;48.378;10.010;2022-12-17T07:10:10;30.23;;;15.77;;
76346;SDS011;65171;48.378;10.010;2022-12-17T07:12:35;27.83;;;16.13;;
76346;SDS011;65171;48.378;10.010;2022-12-17T07:15:00;27.67;;;15.27;;
76346;SDS011;65171;48.378;10.010;2022-12-17T07:17:26;24.50;;;14.83;;
76346;SDS011;65171;48.378;10.010;2022-12-17T07:19:51;27.23;;;16.13;;
76346;SDS011;65171;48.378;10.010;2022-12-17T07:22:16;27.47;;;16.07;;
76346;SDS011;65171;48.378;10.010;2022-12-17T07:24:41;26.47;;;15.50;;
76346;SDS011;65171;48.378;10.010;2022-12-17T07:27:06;28.43;;;17.03;;
76346;SDS011;65171;48.378;10.010;2022-12-17T07:29:32;31.27;;;16.50;;
76346;SDS011;65171;48.378;10.010;2022-12-17T07:31:57;25.00;;;16.07;;
76346;SDS011;65171;48.378;10.010;2022-12-17T07:34:22;26.53;;;16.23;;
76346;SDS011;65171;48.378;10.010;2022-12-17T07:36:48;26.87;;;15.43;;
76346;SDS011;65171;48.378;10.010;2022-12-17T07:39:13;28.93;;;16.23;;
76346;SDS011;65171;48.378;10.010;2022-12-17T07:41:38;26.60;;;15.90;;
76346;SDS011;65171;48.378;10.010;2022-12-17T07:44:03;25.50;;;15.50;;
76346;SDS011;65171;48.378;10.010;2022-12-17T07:46:29;27.00;;;15.50;;
76346;SDS011;65171;48.378;10.010;2022-12-17T07:48:54;26.83;;;16.17;;
76346;SDS011;65171;48.378;10.010;2022-12-17T07:51:19;27.20;;;16.93;;
76346;SDS011;65171;48.378;10.010;2022-12-17T07:53:44;26.07;;;15.90;;
76346;SDS011;65171;48.378;10.010;2022-12-17T07:56:10;27.53;;;16.37;;
76346;SDS011;65171;48.378;10.010;2022-12-17T07:58:35;28.93;;;17.07;;
76346;SDS011;65171;48.378;10.010;2022-12-17T08:01:00;29.17;;;17.07;;
76346;SDS011;65171;48.378;10.010;2022-12-17T08:03:25;25.97;;;16.73;;
76346;SDS011;65171;48.378;10.010;2022-12-17T08:05:51;29.50;;;17.63;;
76346;SDS011;65171;48.378;10.010;2022-12-17T08:08:16;29.63;;;17.30;;
76346;SDS011;65171;48.378;10.010;2022-12-17T08:10:41;32.80;;;18.00;;
76346;SDS011;65171;48.378;10.010;2022-12-17T08:13:07;32.17;;;19.13;;
76346;SDS011;65171;48.378;10.010;2022-12-17T08:15:32;33.60;;;19.33;;
76346;SDS011;65171;48.378;10.010;2022-12-17T08:18:01;35.60;;;20.30;;
76346;SDS011;65171;48.378;10.010;2022-12-17T08:20:27;32.53;;;19.67;;
76346;SDS011;65171;48.378;10.010;2022-12-17T08:22:59;35.13;;;21.20;;
76346;SDS011;65171;48.378;10.010;2022-12-17T08:25:28;34.13;;;19.40;;
76346;SDS011;65171;48.378;10.010;2022-12-17T08:27:57;31.40;;;18.67;;
76346;SDS011;65171;48.378;10.010;2022-12-17T08:30:24;34.55;;;20.17;;
76346;SDS011;65171;48.378;10.010;2022-12-17T08:32:49;35.30;;;19.97;;
76346;SDS011;65171;48.378;10.010;2022-12-17T08:35:14;38.50;;;21.47;;
76346;SDS011;65171;48.378;10.010;2022-12-17T08:37:39;36.43;;;20.77;;
76346;SDS011;65171;48.378;10.010;2022-12-17T08:40:05;38.10;;;21.10;;
76346;SDS011;65171;48.378;10.010;2022-12-17T08:42:30;33.30;;;20.47;;
76346;SDS011;65171;48.378;10.010;2022-12-17T08:44:55;34.87;;;18.67;;
76346;SDS011;65171;48.378;10.010;2022-12-17T08:47:21;32.43;;;19.10;;
76346;SDS011;65171;48.378;10.010;2022-12-17T08:49:46;32.40;;;17.87;;
76346;SDS011;65171;48.378;10.010;2022-12-17T08:52:11;26.70;;;16.43;;
76346;SDS011;65171;48.378;10.010;2022-12-17T08:54:36;30.27;;;18.80;;
76346;SDS011;65171;48.378;10.010;2022-12-17T08:57:01;32.50;;;18.67;;
76346;SDS011;65171;48.378;10.010;2022-12-17T08:59:27;32.23;;;17.53;;
76346;SDS011;65171;48.378;10.010;2022-12-17T09:01:52;29.73;;;17.77;;
76346;SDS011;65171;48.378;10.010;2022-12-17T09:04:17;32.20;;;20.00;;
76346;SDS011;65171;48.378;10.010;2022-12-17T09:06:42;32.97;;;20.67;;
76346;SDS011;65171;48.378;10.010;2022-12-17T09:09:08;32.43;;;20.13;;
76346;SDS011;65171;48.378;10.010;2022-12-17T09:11:33;33.67;;;18.90;;
76346;SDS011;65171;48.378;10.010;2022-12-17T09:13:58;30.57;;;18.40;;
76346;SDS011;65171;48.378;10.010;2022-12-17T09:16:23;32.20;;;18.90;;
76346;SDS011;65171;48.378;10.010;2022-12-17T09:18:49;29.63;;;19.10;;
76346;SDS011;65171;48.378;10.010;2022-12-17T09:21:14;32.63;;;18.33;;
76346;SDS011;65171;48.378;10.010;2022-12-17T09:23:39;35.10;;;18.93;;
76346;SDS011;65171;48.378;10.010;2022-12-17T09:26:04;27.00;;;17.30;;
76346;SDS011;65171;48.378;10.010;2022-12-17T09:28:29;28.77;;;17.43;;
76346;SDS011;65171;48.378;10.010;2022-12-17T09:30:58;30.83;;;18.70;;
76346;SDS011;65171;48.378;10.010;2022-12-17T09:33:24;30.10;;;17.75;;
76346;SDS011;65171;48.378;10.010;2022-12-17T09:35:49;30.07;;;17.97;;
76346;SDS011;65171;48.378;10.010;2022-12-17T09:38:15;26.73;;;17.83;;
76346;SDS011;65171;48.378;10.010;2022-12-17T09:40:44;26.55;;;15.35;;
76346;SDS011;65171;48.378;10.010;2022-12-17T09:43:34;26.58;;;16.02;;
76346;SDS011;65171;48.378;10.010;2022-12-17T09:46:10;26.52;;;16.27;;
76346;SDS011;65171;48.378;10.010;2022-12-17T09:51:38;25.30;;;16.25;;
76346;SDS011;65171;48.378;10.010;2022-12-17T09:54:03;25.87;;;16.17;;
76346;SDS011;65171;48.378;10.010;2022-12-17T09:56:31;24.63;;;16.60;;
76346;SDS011;65171;48.378;10.010;2022-12-17T09:58:57;26.33;;;16.38;;
76346;SDS011;65171;48.378;10.010;2022-12-17T10:01:24;25.23;;;17.43;;
76346;SDS011;65171;48.378;10.010;2022-12-17T10:03:52;24.63;;;15.85;;
76346;SDS011;65171;48.378;10.010;2022-12-17T10:06:21;25.93;;;17.10;;
76346;SDS011;65171;48.378;10.010;2022-12-17T10:08:52;26.17;;;16.75;;
76346;SDS011;65171;48.378;10.010;2022-12-17T10:11:26;26.65;;;17.23;;
76346;SDS011;65171;48.378;10.010;2022-12-17T10:13:53;27.05;;;18.65;;
76346;SDS011;65171;48.378;10.010;2022-12-17T10:18:53;24.60;;;16.95;;
76346;SDS011;65171;48.378;10.010;2022-12-17T10:21:18;24.13;;;16.37;;
76346;SDS011;65171;48.378;10.010;2022-12-17T10:23:44;24.30;;;16.53;;
76346;SDS011;65171;48.378;10.010;2022-12-17T10:26:12;25.70;;;17.57;;
76346;SDS011;65171;48.378;10.010;2022-12-17T10:28:41;28.60;;;17.98;;
76346;SDS011;65171;48.378;10.010;2022-12-17T10:31:17;26.20;;;17.70;;
76346;SDS011;65171;48.378;10.010;2022-12-17T10:33:44;23.73;;;16.83;;
76346;SDS011;65171;48.378;10.010;2022-12-17T10:36:21;28.10;;;18.00;;
76346;SDS011;65171;48.378;10.010;2022-12-17T10:38:52;26.67;;;17.55;;
76346;SDS011;65171;48.378;10.010;2022-12-17T10:43:47;27.42;;;17.38;;
76346;SDS011;65171;48.378;10.010;2022-12-17T10:46:23;26.23;;;17.97;;
76346;SDS011;65171;48.378;10.010;2022-12-17T10:48:48;24.23;;;18.27;;
76346;SDS011;65171;48.378;10.010;2022-12-17T10:51:18;25.27;;;17.67;;
76346;SDS011;65171;48.378;10.010;2022-12-17T10:53:46;28.30;;;18.33;;
76346;SDS011;65171;48.378;10.010;2022-12-17T10:56:21;24.53;;;16.93;;
76346;SDS011;65171;48.378;10.010;2022-12-17T10:58:49;27.52;;;18.67;;
76346;SDS011;65171;48.378;10.010;2022-12-17T11:01:18;29.83;;;17.97;;
76346;SDS011;65171;48.378;10.010;2022-12-17T11:03:52;26.77;;;18.47;;
76346;SDS011;65171;48.378;10.010;2022-12-17T11:06:30;32.90;;;19.83;;
76346;SDS011;65171;48.378;10.010;2022-12-17T11:08:58;41.17;;;22.13;;
76346;SDS011;65171;48.378;10.010;2022-12-17T11:11:25;36.43;;;22.20;;
76346;SDS011;65171;48.378;10.010;2022-12-17T11:13:51;38.27;;;22.47;;
76346;SDS011;65171;48.378;10.010;2022-12-17T11:16:21;36.00;;;21.77;;
76346;SDS011;65171;48.378;10.010;2022-12-17T11:21:43;32.27;;;21.10;;
76346;SDS011;65171;48.378;10.010;2022-12-17T11:24:25;35.53;;;21.87;;
76346;SDS011;65171;48.378;10.010;2022-12-17T11:27:19;34.40;;;22.00;;
76346;SDS011;65171;48.378;10.010;2022-12-17T11:29:48;36.20;;;22.50;;
76346;SDS011;65171;48.378;10.010;2022-12-17T11:38:00;39.57;;;24.50;;
76346;SDS011;65171;48.378;10.010;2022-12-17T11:40:40;40.03;;;24.23;;
76346;SDS011;65171;48.378;10.010;2022-12-17T11:43:17;38.23;;;24.03;;
76346;SDS011;65171;48.378;10.010;2022-12-17T11:45:54;38.40;;;24.60;;
76346;SDS011;65171;48.378;10.010;2022-12-17T11:48:35;38.43;;;24.03;;
76346;SDS011;65171;48.378;10.010;2022-12-17T11:59:14;38.60;;;24.10;;
76346;SDS011;65171;48.378;10.010;2022-12-17T12:01:49;38.53;;;24.13;;
76346;SDS011;65171;48.378;10.010;2022-12-17T12:07:32;33.53;;;22.63;;
76346;SDS011;65171;48.378;10.010;2022-12-17T12:10:08;33.50;;;22.57;;
76346;SDS011;65171;48.378;10.010;2022-12-17T12:15:26;38.13;;;22.17;;
76346;SDS011;65171;48.378;10.010;2022-12-17T12:18:03;34.00;;;22.83;;
76346;SDS011;65171;48.378;10.010;2022-12-17T12:26:15;38.10;;;23.03;;
76346;SDS011;65171;48.378;10.010;2022-12-17T12:31:30;34.43;;;23.03;;
76346;SDS011;65171;48.378;10.010;2022-12-17T12:34:03;37.13;;;23.63;;
76346;SDS011;65171;48.378;10.010;2022-12-17T12:36:35;35.50;;;24.10;;
76346;SDS011;65171;48.378;10.010;2022-12-17T12:39:03;37.50;;;24.43;;
76346;SDS011;65171;48.378;10.010;2022-12-17T12:41:41;36.80;;;24.37;;
76346;SDS011;65171;48.378;10.010;2022-12-17T12:47:08;37.57;;;23.40;;
76346;SDS011;65171;48.378;10.010;2022-12-17T12:49:40;35.40;;;23.03;;
76346;SDS011;65171;48.378;10.010;2022-12-17T12:52:20;36.70;;;24.10;;
76346;SDS011;65171;48.378;10.010;2022-12-17T12:54:49;35.43;;;23.87;;
76346;SDS011;65171;48.378;10.010;2022-12-17T13:00:29;35.53;;;23.73;;
76346;SDS011;65171;48.378;10.010;2022-12-17T13:03:04;35.07;;;24.27;;
76346;SDS011;65171;48.378;10.010;2022-12-17T13:05:36;36.33;;;23.97;;
76346;SDS011;65171;48.378;10.010;2022-12-17T13:10:32;40.70;;;26.90;;
76346;SDS011;65171;48.378;10.010;2022-12-17T13:13:04;39.20;;;24.57;;
76346;SDS011;65171;48.378;10.010;2022-12-17T13:15:36;41.17;;;26.57;;
76346;SDS011;65171;48.378;10.010;2022-12-17T13:21:00;40.10;;;26.30;;
76346;SDS011;65171;48.378;10.010;2022-12-17T13:23:32;41.97;;;27.13;;
76346;SDS011;65171;48.378;10.010;2022-12-17T13:26:02;43.03;;;28.03;;
76346;SDS011;65171;48.378;10.010;2022-12-17T13:28:37;43.10;;;27.57;;
76346;SDS011;65171;48.378;10.010;2022-12-17T13:31:05;41.87;;;27.13;;
76346;SDS011;65171;48.378;10.010;2022-12-17T13:41:52;40.17;;;25.80;;
76346;SDS011;65171;48.378;10.010;2022-12-17T13:46:48;43.00;;;25.33;;
76346;SDS011;65171;48.378;10.010;2022-12-17T13:49:19;41.93;;;26.20;;
76346;SDS011;65171;48.378;10.010;2022-12-17T13:51:46;38.33;;;25.17;;
76346;SDS011;65171;48.378;10.010;2022-12-17T13:54:16;38.20;;;25.73;;
76346;SDS011;65171;48.378;10.010;2022-12-17T13:56:42;43.77;;;27.60;;
76346;SDS011;65171;48.378;10.010;2022-12-17T13:59:19;41.37;;;27.13;;
76346;SDS011;65171;48.378;10.010;2022-12-17T14:01:47;41.00;;;27.33;;
76346;SDS011;65171;48.378;10.010;2022-12-17T14:04:18;40.63;;;25.67;;
76346;SDS011;65171;48.378;10.010;2022-12-17T14:06:44;39.77;;;26.37;;
76346;SDS011;65171;48.378;10.010;2022-12-17T14:09:13;42.23;;;25.73;;
76346;SDS011;65171;48.378;10.010;2022-12-17T14:11:43;39.47;;;26.17;;
76346;SDS011;65171;48.378;10.010;2022-12-17T14:14:30;39.43;;;25.97;;
76346;SDS011;65171;48.378;10.010;2022-12-17T14:16:53;39.73;;;25.47;;
76346;SDS011;65171;48.378;10.010;2022-12-17T14:19:19;42.23;;;26.23;;
76346;SDS011;65171;48.378;10.010;2022-12-17T14:21:44;36.47;;;24.17;;
76346;SDS011;65171;48.378;10.010;2022-12-17T14:24:11;36.10;;;24.33;;
76346;SDS011;65171;48.378;10.010;2022-12-17T14:26:47;36.80;;;23.60;;
76346;SDS011;65171;48.378;10.010;2022-12-17T14:29:13;35.37;;;24.10;;
76346;SDS011;65171;48.378;10.010;2022-12-17T14:31:39;38.40;;;24.33;;
76346;SDS011;65171;48.378;10.010;2022-12-17T14:34:05;33.90;;;23.40;;
76346;SDS011;65171;48.378;10.010;2022-12-17T14:36:32;39.83;;;25.17;;
76346;SDS011;65171;48.378;10.010;2022-12-17T14:38:59;34.80;;;24.20;;
76346;SDS011;65171;48.378;10.010;2022-12-17T14:41:27;39.13;;;25.10;;
76346;SDS011;65171;48.378;10.010;2022-12-17T14:44:00;40.87;;;25.57;;
76346;SDS011;65171;48.378;10.010;2022-12-17T14:46:27;49.47;;;30.30;;
76346;SDS011;65171;48.378;10.010;2022-12-17T14:48:57;42.90;;;27.93;;
76346;SDS011;65171;48.378;10.010;2022-12-17T14:51:34;39.07;;;24.70;;
76346;SDS011;65171;48.378;10.010;2022-12-17T14:56:48;38.63;;;24.87;;
76346;SDS011;65171;48.378;10.010;2022-12-17T14:59:33;38.37;;;24.03;;
76346;SDS011;65171;48.378;10.010;2022-12-17T15:04:34;40.27;;;25.10;;
76346;SDS011;65171;48.378;10.010;2022-12-17T15:07:01;38.70;;;25.13;;
76346;SDS011;65171;48.378;10.010;2022-12-17T15:09:26;43.17;;;25.87;;
76346;SDS011;65171;48.378;10.010;2022-12-17T15:11:51;39.60;;;26.40;;
76346;SDS011;65171;48.378;10.010;2022-12-17T15:14:16;40.43;;;25.77;;
76346;SDS011;65171;48.378;10.010;2022-12-17T15:16:42;41.97;;;26.27;;
76346;SDS011;65171;48.378;10.010;2022-12-17T15:19:07;38.63;;;25.17;;